Time;durP1;ratioP1;P1;durP2;ratioP2;P2;SDS_P1;SDS_P2;PMS_P1;PMS_P2;Temp;Humidity;BMP_temperature;BMP_pressure;BME280_temperature;BME280_humidity;BME280_pressure;Samples;Min_cycle;Max_cycle;Signal;HPM_P1;HPM_P2
2022/04/20 00:01:34;;;;;;;1.85;1.75;;;;;;;4.72;86.58;101973.38;5030264;28;20255;-50
2022/04/20 00:03:59;;;;;;;4.60;2.53;;;;;;;4.66;86.39;101981.34;5029819;28;20264;-48
2022/04/20 00:06:25;;;;;;;3.17;2.15;;;;;;;4.69;86.58;101978.69;5029689;28;20199;-48
2022/04/20 00:08:50;;;;;;;2.00;1.80;;;;;;;4.57;86.44;101986.56;5029989;28;20192;-50
2022/04/20 00:11:16;;;;;;;4.32;2.20;;;;;;;4.54;86.54;101985.66;5029754;28;20168;-49
2022/04/20 00:13:41;;;;;;;3.55;2.08;;;;;;;4.37;87.41;101982.03;5029892;28;20172;-51
2022/04/20 00:16:06;;;;;;;2.15;1.90;;;;;;;4.27;88.25;101985.53;5029704;28;20286;-50
2022/04/20 00:18:32;;;;;;;4.57;2.30;;;;;;;4.13;88.83;101993.38;5029930;28;20208;-49
2022/04/20 00:20:57;;;;;;;3.35;2.30;;;;;;;3.93;89.69;101974.66;5029727;28;20531;-49
2022/04/20 00:23:22;;;;;;;2.88;2.63;;;;;;;3.67;90.97;101983.31;5029634;28;20188;-50
2022/04/20 00:25:48;;;;;;;5.93;2.28;;;;;;;3.61;92.11;101983.25;5029828;28;20627;-49
2022/04/20 00:28:13;;;;;;;2.20;2.00;;;;;;;3.62;92.92;101985.03;5029821;28;20685;-50
2022/04/20 00:30:38;;;;;;;4.15;2.42;;;;;;;3.49;93.64;101984.00;5028074;28;20212;-49
2022/04/20 00:33:04;;;;;;;3.60;2.45;;;;;;;3.51;94.06;101979.63;5029880;28;20180;-49
2022/04/20 00:35:30;;;;;;;2.58;2.28;;;;;;;3.67;94.39;101980.66;5028253;28;20689;-49
2022/04/20 00:37:55;;;;;;;4.15;2.13;;;;;;;3.76;94.25;101978.94;5027591;28;20183;-50
2022/04/20 00:40:21;;;;;;;3.70;2.40;;;;;;;3.52;93.81;101991.13;5029717;28;20226;-48
2022/04/20 00:42:48;;;;;;;3.55;2.58;;;;;;;3.38;93.66;101977.72;5027887;28;20266;-49
2022/04/20 00:45:13;;;;;;;2.50;2.15;;;;;;;3.27;94.06;101977.63;5028260;28;20164;-48
2022/04/20 00:47:42;;;;;;;3.95;2.80;;;;;;;3.30;94.76;101975.03;5029855;28;20238;-50
2022/04/20 00:50:12;;;;;;;3.33;2.75;;;;;;;3.27;95.37;101977.63;5032089;28;20175;-51
2022/04/20 00:52:38;;;;;;;3.42;2.35;;;;;;;3.39;95.33;101981.25;5031903;28;20202;-49
2022/04/20 00:55:04;;;;;;;2.85;2.60;;;;;;;3.54;95.40;101991.13;5031641;28;20203;-48
2022/04/20 00:57:30;;;;;;;2.92;2.03;;;;;;;3.64;94.91;101983.28;5031866;28;20218;-49
2022/04/20 00:59:59;;;;;;;2.33;2.10;;;;;;;3.72;94.51;101986.00;5031877;28;20517;-49
2022/04/20 01:02:26;;;;;;;2.17;1.98;;;;;;;3.78;94.32;101979.84;5031756;28;20183;-49
2022/04/20 01:04:52;;;;;;;2.72;2.50;;;;;;;3.62;93.36;101979.72;5031237;28;20204;-49
2022/04/20 01:07:37;;;;;;;5.82;2.60;;;;;;;3.38;93.73;101975.06;5031926;28;20740;-49
2022/04/20 01:10:16;;;;;;;4.38;2.92;;;;;;;3.42;94.46;101981.31;5031518;28;20654;-50
2022/04/20 01:12:51;;;;;;;4.13;2.40;;;;;;;3.42;94.27;101987.50;5031662;28;20543;-50
2022/04/20 01:15:17;;;;;;;3.50;2.58;;;;;;;3.35;94.53;101982.13;5032957;28;20247;-50
2022/04/20 01:18:15;;;;;;;3.65;2.75;;;;;;;3.47;94.49;101972.50;5033020;28;20192;-50
2022/04/20 01:21:07;;;;;;;3.92;2.38;;;;;;;3.52;94.30;101983.19;5025025;28;20255;-48
2022/04/20 01:24:05;;;;;;;2.50;2.30;;;;;;;3.62;94.18;101969.13;5032916;28;20172;-49
2022/04/20 01:26:53;;;;;;;3.33;2.40;;;;;;;3.65;93.58;101965.59;5020534;28;20666;-52
2022/04/20 01:29:48;;;;;;;4.38;2.63;;;;;;;3.67;93.12;101982.41;4995300;28;20304;-49
2022/04/20 01:32:46;;;;;;;2.75;2.25;;;;;;;3.66;93.01;101970.94;5045548;28;20199;-49
2022/04/20 01:35:19;;;;;;;4.15;2.53;;;;;;;3.61;92.94;101977.97;5050834;28;20195;-50
2022/04/20 01:37:45;;;;;;;2.70;2.45;;;;;;;3.65;93.05;101973.56;5050871;28;20203;-48
2022/04/20 01:40:10;;;;;;;2.78;2.40;;;;;;;3.58;92.68;101974.38;5051043;28;20168;-49
2022/04/20 01:42:36;;;;;;;3.70;2.28;;;;;;;3.44;92.81;101975.16;5052510;28;20190;-49
2022/04/20 01:45:05;;;;;;;2.78;2.47;;;;;;;3.40;93.50;101970.69;5050256;28;20210;-49
2022/04/20 01:47:42;;;;;;;3.05;2.75;;;;;;;3.34;93.99;101973.28;5050740;28;20199;-49
2022/04/20 01:50:22;;;;;;;2.80;2.53;;;;;;;3.29;94.48;101975.00;5050825;28;20253;-48
2022/04/20 01:53:00;;;;;;;3.97;2.42;;;;;;;3.37;94.86;101977.69;5050177;28;20242;-49
2022/04/20 01:55:48;;;;;;;3.10;2.50;;;;;;;3.34;94.75;101975.91;5032129;28;20211;-51
2022/04/20 01:58:24;;;;;;;3.20;2.50;;;;;;;3.35;94.91;101971.53;5030868;28;20524;-52
2022/04/20 02:00:56;;;;;;;2.75;2.55;;;;;;;3.27;94.95;101969.66;5029782;28;20182;-50
2022/04/20 02:03:37;;;;;;;5.00;2.40;;;;;;;3.19;95.00;101971.38;5030464;28;20168;-50
2022/04/20 02:06:10;;;;;;;3.58;2.22;;;;;;;3.23;95.01;101975.81;5031053;28;20184;-50
2022/04/20 02:08:47;;;;;;;2.67;2.47;;;;;;;3.27;95.07;101972.31;5030779;28;20207;-50
2022/04/20 02:11:21;;;;;;;3.42;2.38;;;;;;;3.27;94.87;101967.03;5030745;28;20230;-50
2022/04/20 02:13:52;;;;;;;3.15;2.20;;;;;;;3.30;94.91;101968.81;5030478;28;20194;-49
2022/04/20 02:16:18;;;;;;;3.83;2.50;;;;;;;3.20;94.80;101965.19;5032028;28;20203;-51
2022/04/20 02:19:02;;;;;;;2.42;2.15;;;;;;;3.03;94.42;101967.66;5032097;28;20258;-50
2022/04/20 02:21:53;;;;;;;5.43;2.70;;;;;;;2.88;94.85;101970.13;5027873;28;20326;-50
2022/04/20 02:24:19;;;;;;;2.55;2.35;;;;;;;2.95;95.56;101966.69;5030404;28;20623;-51
2022/04/20 02:26:45;;;;;;;3.47;2.55;;;;;;;2.90;95.45;101957.81;5030639;28;20199;-49
2022/04/20 02:29:11;;;;;;;3.00;2.60;;;;;;;2.90;96.02;101960.44;5032033;28;20188;-52
2022/04/20 02:31:36;;;;;;;4.43;2.55;;;;;;;2.77;95.88;101962.06;5030139;28;20639;-50
2022/04/20 02:34:02;;;;;;;2.60;2.40;;;;;;;2.77;96.46;101958.53;5030129;28;20191;-51
2022/04/20 02:36:27;;;;;;;3.42;2.63;;;;;;;2.78;97.08;101963.84;5030322;28;20215;-49
2022/04/20 02:38:53;;;;;;;3.38;2.30;;;;;;;2.90;97.30;101952.50;5031501;28;20302;-49
2022/04/20 02:41:19;;;;;;;3.08;2.30;;;;;;;2.96;97.06;101952.56;5031587;28;20659;-49
2022/04/20 02:43:44;;;;;;;4.00;2.80;;;;;;;2.97;96.83;101937.56;5031035;28;20642;-49
2022/04/20 02:46:11;;;;;;;2.83;2.45;;;;;;;2.95;96.68;101950.81;5030144;28;20172;-50
2022/04/20 02:48:36;;;;;;;4.25;2.50;;;;;;;3.01;97.01;101942.03;5031211;28;20271;-50
2022/04/20 02:51:02;;;;;;;3.58;2.63;;;;;;;2.99;96.57;101946.44;5031654;28;20263;-48
2022/04/20 02:53:27;;;;;;;2.95;2.28;;;;;;;3.07;96.79;101947.41;5029734;28;20188;-49
2022/04/20 02:55:53;;;;;;;2.40;2.15;;;;;;;3.04;96.88;101948.25;5031295;28;20277;-49
2022/04/20 02:58:19;;;;;;;3.42;3.05;;;;;;;3.11;96.59;101951.88;5013589;28;20191;-49
2022/04/20 03:00:51;;;;;;;2.65;2.42;;;;;;;3.15;96.57;101945.72;5029948;28;20179;-47
2022/04/20 03:03:38;;;;;;;2.47;2.20;;;;;;;3.17;96.67;101946.63;5029801;28;20206;-48
2022/04/20 03:06:29;;;;;;;2.80;2.60;;;;;;;2.94;96.79;101950.78;5029319;28;20551;-50
2022/04/20 03:08:59;;;;;;;2.97;2.70;;;;;;;3.05;97.36;101951.78;5013879;28;20286;-47
2022/04/20 03:11:27;;;;;;;4.50;2.58;;;;;;;3.11;97.52;101959.81;5029603;28;20283;-47
2022/04/20 03:13:52;;;;;;;3.72;2.60;;;;;;;3.16;97.69;101951.91;5029357;28;20558;-48
2022/04/20 03:16:20;;;;;;;3.60;2.25;;;;;;;3.24;97.35;101960.84;5029806;28;20210;-48
2022/04/20 03:18:48;;;;;;;3.05;2.50;;;;;;;3.22;97.23;101957.28;5030707;28;20283;-48
2022/04/20 03:21:18;;;;;;;2.97;2.58;;;;;;;3.21;97.08;101958.13;5029601;28;20172;-47
2022/04/20 03:23:43;;;;;;;4.93;2.85;;;;;;;3.05;97.29;101957.97;5030386;28;20168;-48
2022/04/20 03:26:15;;;;;;;3.65;2.90;;;;;;;2.91;97.73;101956.03;5029117;28;20276;-48
2022/04/20 03:28:57;;;;;;;3.10;2.80;;;;;;;2.99;98.29;101957.91;5034761;28;20192;-46
2022/04/20 03:31:23;;;;;;;4.70;2.92;;;;;;;3.06;98.45;101950.91;5050072;28;20187;-47
2022/04/20 03:33:48;;;;;;;4.38;3.17;;;;;;;3.04;98.17;101964.16;5050404;28;20175;-47
2022/04/20 03:36:14;;;;;;;2.70;2.50;;;;;;;3.02;98.41;101951.78;5049852;28;20206;-46
2022/04/20 03:38:39;;;;;;;3.88;2.70;;;;;;;2.96;98.67;101960.53;5050289;28;20678;-48
2022/04/20 03:41:05;;;;;;;2.63;2.42;;;;;;;3.00;98.93;101957.03;5050209;28;20269;-47
2022/04/20 03:43:31;;;;;;;3.38;2.97;;;;;;;3.01;98.89;101955.28;5050690;28;20164;-46
2022/04/20 03:45:56;;;;;;;3.00;2.70;;;;;;;2.96;99.05;101973.75;5048619;28;20232;-47
2022/04/20 03:48:22;;;;;;;4.10;2.80;;;;;;;2.91;98.85;101958.69;5050834;28;20294;-46
2022/04/20 03:50:48;;;;;;;4.10;2.65;;;;;;;2.87;99.51;101966.59;5050330;28;20202;-46
2022/04/20 03:53:14;;;;;;;3.20;2.90;;;;;;;2.84;99.60;101977.16;5047586;28;20172;-46
2022/04/20 03:55:40;;;;;;;3.50;3.20;;;;;;;2.81;100.00;101963.00;5028932;28;20231;-46
2022/04/20 03:58:06;;;;;;;3.40;2.72;;;;;;;2.83;100.00;101974.47;5030487;28;20223;-47
2022/04/20 04:00:32;;;;;;;4.32;3.15;;;;;;;2.78;100.00;101974.44;5029051;28;20385;-46
2022/04/20 04:02:58;;;;;;;3.60;3.30;;;;;;;2.73;100.00;101973.47;5028536;28;20638;-45
2022/04/20 04:05:32;;;;;;;6.85;3.20;;;;;;;2.78;100.00;101971.78;5028556;28;20180;-46
2022/04/20 04:08:05;;;;;;;5.47;3.10;;;;;;;2.79;100.00;101964.72;5028641;28;20579;-47
2022/04/20 04:10:33;;;;;;;3.20;2.90;;;;;;;2.88;100.00;101967.47;5028896;28;20179;-46
2022/04/20 04:12:58;;;;;;;2.95;2.70;;;;;;;2.89;100.00;101962.22;5030059;28;20191;-48
2022/04/20 04:15:26;;;;;;;4.35;3.22;;;;;;;2.86;100.00;101954.25;5029774;28;20196;-44
2022/04/20 04:17:58;;;;;;;6.82;2.92;;;;;;;2.82;100.00;101962.09;5028099;28;20199;-47
2022/04/20 04:20:26;;;;;;;3.72;3.30;;;;;;;2.89;100.00;101954.28;5028850;28;20210;-45
2022/04/20 04:22:53;;;;;;;3.70;3.40;;;;;;;2.86;100.00;101950.69;5029374;28;20172;-46
2022/04/20 04:25:41;;;;;;;4.20;3.80;;;;;;;2.80;100.00;101951.53;5032879;28;20171;-46
2022/04/20 04:28:09;;;;;;;3.45;3.15;;;;;;;2.86;100.00;101954.25;5032453;28;20235;-46
2022/04/20 04:30:39;;;;;;;3.65;3.10;;;;;;;2.93;100.00;101952.56;5032437;28;20175;-47
2022/04/20 04:33:04;;;;;;;3.88;3.30;;;;;;;2.93;100.00;101946.34;5032551;28;20183;-46
2022/04/20 04:35:34;;;;;;;3.75;3.42;;;;;;;3.00;100.00;101949.09;5032143;28;20297;-47
2022/04/20 04:38:00;;;;;;;3.80;3.50;;;;;;;3.09;100.00;101950.97;5032109;28;20260;-47
2022/04/20 04:40:28;;;;;;;4.28;3.65;;;;;;;3.16;100.00;101965.16;5031882;28;20188;-46
2022/04/20 04:42:54;;;;;;;3.78;3.47;;;;;;;3.24;100.00;101953.75;5033646;28;20171;-46
2022/04/20 04:50:55;;;;;;;4.80;3.55;;;;;;;4.47;100.00;101952.03;5032058;28;20175;-47
2022/04/20 04:53:21;;;;;;;4.45;3.75;;;;;;;5.04;100.00;101956.69;5031705;28;20202;-46
2022/04/20 04:55:46;;;;;;;4.97;3.97;;;;;;;5.49;99.12;101955.88;5031876;28;20222;-46
2022/04/20 04:58:13;;;;;;;4.22;3.83;;;;;;;5.82;96.81;101945.25;5031911;28;20274;-46
2022/04/20 05:00:39;;;;;;;4.13;3.60;;;;;;;6.16;94.79;101948.78;5031822;28;20176;-47
2022/04/20 05:03:17;;;;;;;4.25;3.25;;;;;;;6.59;92.92;101952.19;5032029;28;20179;-48
2022/04/20 05:05:44;;;;;;;3.50;3.20;;;;;;;6.85;90.27;101945.88;5031801;28;20172;-48
2022/04/20 05:08:10;;;;;;;5.10;4.05;;;;;;;7.10;89.41;101951.06;5031833;28;20192;-47
2022/04/20 05:10:36;;;;;;;4.60;3.88;;;;;;;7.44;88.54;101935.75;5031942;28;20174;-48
2022/04/20 05:13:07;;;;;;;3.78;3.47;;;;;;;7.50;86.57;101949.03;5031703;28;20184;-48
2022/04/20 05:15:34;;;;;;;3.00;2.70;;;;;;;7.65;85.38;101940.00;5031920;28;20204;-47
2022/04/20 05:18:00;;;;;;;3.53;3.25;;;;;;;7.98;84.50;101938.84;5033132;28;20242;-47
2022/04/20 05:20:25;;;;;;;4.22;3.83;;;;;;;8.07;83.84;101951.22;5033020;28;20211;-49
2022/04/20 05:22:51;;;;;;;4.03;3.63;;;;;;;8.42;83.55;101952.66;5032988;28;20195;-48
2022/04/20 05:25:17;;;;;;;7.28;4.47;;;;;;;8.81;82.89;101953.06;5031611;28;20176;-47
2022/04/20 05:27:44;;;;;;;5.60;4.13;;;;;;;9.02;81.90;101950.13;5031700;28;20590;-48
2022/04/20 05:30:14;;;;;;;5.35;3.47;;;;;;;9.24;80.95;101958.72;5031792;28;20180;-47
2022/04/20 05:32:41;;;;;;;5.55;3.55;;;;;;;9.22;80.84;101965.00;5031585;28;20223;-48
2022/04/20 05:35:12;;;;;;;5.07;4.03;;;;;;;9.44;80.41;101947.72;5030647;28;20317;-48
2022/04/20 05:43:10;;;;;;;3.38;3.00;;;;;;;10.29;77.79;101947.16;5030968;28;20179;-47
2022/04/20 05:45:36;;;;;;;8.77;3.28;;;;;;;8.80;79.42;101960.22;5031434;28;20179;-46
2022/04/20 05:48:16;;;;;;;4.85;3.40;;;;;;;9.45;80.10;101951.28;5031273;28;20187;-48
2022/04/20 05:50:43;;;;;;;3.97;3.10;;;;;;;9.53;79.28;101945.81;5031458;28;20666;-49
2022/04/20 05:53:09;;;;;;;3.30;3.00;;;;;;;9.78;79.31;101951.66;5031140;28;20172;-46
2022/04/20 05:55:35;;;;;;;3.28;2.97;;;;;;;9.58;78.68;101944.84;5030902;28;20694;-48
2022/04/20 05:58:01;;;;;;;3.53;3.13;;;;;;;10.18;77.96;101953.63;5031077;28;20262;-46
2022/04/20 06:00:27;;;;;;;5.13;2.47;;;;;;;10.82;75.52;101943.44;5031032;28;20200;-45
2022/04/20 06:03:27;;;;;;;4.03;2.33;;;;;;;10.29;72.30;101952.53;5032210;28;20290;-44
2022/04/20 06:06:01;;;;;;;4.00;2.83;;;;;;;10.21;73.61;101946.41;5030936;28;20655;-45
2022/04/20 06:08:40;;;;;;;2.60;2.35;;;;;;;9.51;74.80;101939.59;5030838;28;20323;-43
2022/04/20 06:11:28;;;;;;;4.55;2.65;;;;;;;9.95;74.18;101937.94;5021428;28;20570;-46
2022/04/20 06:13:53;;;;;;;4.20;2.67;;;;;;;10.53;72.53;101942.25;5030679;28;20176;-44
2022/04/20 06:16:30;;;;;;;4.25;2.40;;;;;;;10.96;69.62;101927.06;5030670;28;20200;-44
2022/04/20 06:19:07;;;;;;;5.00;2.75;;;;;;;10.61;67.83;101931.38;5031404;28;20206;-54
2022/04/20 06:21:42;;;;;;;5.30;2.30;;;;;;;10.69;70.11;101937.44;5030964;28;20207;-45
2022/04/20 06:24:10;;;;;;;4.45;2.13;;;;;;;10.91;69.58;101922.69;5030580;28;20561;-46
2022/04/20 06:27:11;;;;;;;5.10;2.25;;;;;;;11.41;65.54;101924.22;5013462;28;20737;-45
2022/04/20 06:30:00;;;;;;;4.15;3.00;;;;;;;11.79;65.37;101920.59;5031715;28;20187;-45
2022/04/20 06:32:37;;;;;;;3.00;2.00;;;;;;;11.62;64.01;101921.00;5032258;28;20558;-45
2022/04/20 06:35:13;;;;;;;2.67;1.80;;;;;;;11.82;62.71;101912.44;5031352;28;20570;-45
2022/04/20 06:38:14;;;;;;;4.93;2.03;;;;;;;11.90;60.66;101917.66;4989950;28;20230;-44
2022/04/20 06:40:58;;;;;;;4.30;1.77;;;;;;;11.73;60.77;101915.38;5028656;28;20302;-45
2022/04/20 06:43:30;;;;;;;3.75;2.05;;;;;;;11.29;60.33;101920.91;5029938;28;20588;-44
2022/04/20 06:46:18;;;;;;;2.95;1.70;;;;;;;11.06;60.39;101926.84;5002622;28;20705;-44
2022/04/20 06:49:17;;;;;;;2.92;1.60;;;;;;;12.44;58.72;101922.47;5030177;28;20554;-44
2022/04/20 07:00:25;;;;;;;1.50;1.17;;;;;;;11.99;58.73;101913.84;5032514;28;20206;-49
2022/04/20 07:03:04;;;;;;;2.22;1.40;;;;;;;12.35;57.67;101923.59;5029099;28;20203;-48
2022/04/20 07:05:48;;;;;;;2.38;1.55;;;;;;;11.38;57.84;101924.31;5030965;28;20214;-48
2022/04/20 07:08:23;;;;;;;3.35;1.45;;;;;;;11.09;57.76;101923.19;5030587;28;20231;-46
2022/04/20 07:10:49;;;;;;;6.50;1.60;;;;;;;11.12;57.74;101926.66;5028995;28;20168;-48
2022/04/20 07:13:16;;;;;;;2.78;1.75;;;;;;;11.79;56.67;101917.91;5029304;28;20214;-49
2022/04/20 07:15:42;;;;;;;2.63;2.03;;;;;;;11.76;57.29;101920.66;5029040;28;20200;-50
2022/04/20 07:18:08;;;;;;;2.40;1.35;;;;;;;12.01;55.56;101922.75;5029119;28;20254;-49
2022/04/20 07:20:49;;;;;;;2.83;1.40;;;;;;;12.27;54.68;101917.53;5030103;28;20190;-52
2022/04/20 07:23:30;;;;;;;2.10;1.40;;;;;;;11.76;55.81;101923.34;5014444;28;20172;-50
2022/04/20 07:26:00;;;;;;;1.50;1.38;;;;;;;11.29;56.91;101925.41;5013012;28;20560;-49
2022/04/20 07:28:57;;;;;;;2.40;1.38;;;;;;;11.34;57.80;101924.38;5030081;28;20654;-49
2022/04/20 07:31:23;;;;;;;1.70;1.50;;;;;;;11.51;57.57;101933.81;5029313;28;20232;-49
2022/04/20 07:34:21;;;;;;;2.50;1.35;;;;;;;11.46;57.61;101935.75;5007036;28;20176;-48
2022/04/20 07:36:58;;;;;;;3.20;1.58;;;;;;;12.04;56.49;101930.72;5045184;28;20612;-49
2022/04/20 07:39:42;;;;;;;1.75;1.30;;;;;;;12.45;55.06;101944.84;5030355;28;20190;-49
2022/04/20 07:42:46;;;;;;;2.40;1.60;;;;;;;12.16;55.94;101941.16;5008218;28;20257;-51
2022/04/20 07:45:26;;;;;;;2.17;1.30;;;;;;;12.12;56.21;101937.66;5007455;28;20168;-50
2022/04/20 07:48:04;;;;;;;2.67;1.40;;;;;;;12.29;56.78;101941.69;5014308;28;20219;-47
2022/04/20 07:51:02;;;;;;;2.63;1.38;;;;;;;12.13;56.44;101928.69;5018810;28;20263;-51
2022/04/20 07:53:38;;;;;;;1.25;1.15;;;;;;;12.08;55.94;101927.03;5032183;28;20183;-49
2022/04/20 07:56:19;;;;;;;2.97;1.40;;;;;;;12.39;55.34;101921.69;5049752;28;20219;-49
2022/04/20 07:59:00;;;;;;;2.15;1.40;;;;;;;12.02;55.29;101927.19;5048239;28;20222;-49
2022/04/20 08:01:38;;;;;;;1.95;1.30;;;;;;;12.40;55.52;101933.31;5049662;28;20186;-50
2022/04/20 08:04:23;;;;;;;3.13;1.40;;;;;;;12.56;54.09;101927.47;5049205;28;20270;-48
2022/04/20 08:06:58;;;;;;;2.97;1.42;;;;;;;12.86;54.00;101921.25;5047872;28;20552;-49
2022/04/20 08:09:24;;;;;;;3.50;1.58;;;;;;;12.93;52.64;101921.00;5048471;28;20299;-49
2022/04/20 08:11:50;;;;;;;2.22;1.50;;;;;;;13.30;51.77;101930.63;5048253;28;20187;-48
2022/04/20 08:14:18;;;;;;;3.03;1.63;;;;;;;12.77;52.48;101947.47;5047628;28;20181;-48
2022/04/20 08:16:56;;;;;;;1.50;1.40;;;;;;;12.76;53.49;101943.00;5048256;28;20164;-50
2022/04/20 08:19:27;;;;;;;2.63;1.50;;;;;;;13.25;52.68;101928.97;5049248;28;20812;-48
2022/04/20 08:22:31;;;;;;;1.52;1.27;;;;;;;13.18;52.49;101934.59;5046137;28;20236;-49
2022/04/20 08:24:57;;;;;;;2.33;1.25;;;;;;;12.88;52.79;101946.25;5031420;28;20665;-49
2022/04/20 08:27:23;;;;;;;2.17;1.42;;;;;;;12.39;52.44;101947.69;5048334;28;20174;-50
2022/04/20 08:29:51;;;;;;;2.08;1.40;;;;;;;12.89;52.58;101932.75;5049147;28;20167;-51
2022/04/20 08:32:18;;;;;;;3.80;1.58;;;;;;;12.67;53.31;101945.09;5047872;28;20597;-53
2022/04/20 08:34:44;;;;;;;1.30;1.20;;;;;;;12.66;52.87;101936.16;5048808;28;20626;-52
2022/04/20 08:37:10;;;;;;;1.67;1.30;;;;;;;13.06;52.41;101937.63;5049248;28;20250;-53
2022/04/20 08:39:35;;;;;;;1.98;1.15;;;;;;;13.24;51.53;101930.78;5049463;28;20179;-53
2022/04/20 08:42:01;;;;;;;4.57;1.63;;;;;;;13.31;51.42;101934.19;5049438;28;20178;-52
2022/04/20 08:44:28;;;;;;;1.85;1.48;;;;;;;13.09;51.57;101932.16;5048795;28;20228;-50
2022/04/20 08:46:58;;;;;;;1.83;1.30;;;;;;;13.15;51.03;101929.28;5046369;28;20179;-52
2022/04/20 08:49:24;;;;;;;2.15;1.50;;;;;;;13.27;51.52;101927.13;5048911;28;20203;-53
2022/04/20 08:54:34;;;;;;;1.90;1.30;;;;;;;13.10;50.13;101931.25;5031215;28;20692;-50
2022/04/20 08:57:15;;;;;;;4.25;1.45;;;;;;;13.23;50.31;101926.34;5046789;28;20258;-49
2022/04/20 08:59:42;;;;;;;2.20;1.25;;;;;;;13.71;49.22;101920.31;5049920;28;20166;-55
2022/04/20 09:02:10;;;;;;;2.47;1.13;;;;;;;13.55;49.73;101905.59;5049150;28;20179;-50
2022/04/20 09:04:36;;;;;;;2.10;1.30;;;;;;;13.69;49.95;101911.41;5049346;28;20592;-50
2022/04/20 09:07:03;;;;;;;1.20;1.10;;;;;;;13.17;49.53;101915.78;5049338;28;20187;-50
2022/04/20 09:09:30;;;;;;;1.70;1.10;;;;;;;13.56;50.31;101910.94;5051652;28;20201;-50
2022/04/20 09:11:57;;;;;;;1.88;1.30;;;;;;;13.66;49.64;101900.72;5052695;28;20546;-49
2022/04/20 09:14:24;;;;;;;1.55;1.02;;;;;;;14.60;49.60;101910.88;5053175;28;20187;-51
2022/04/20 09:17:01;;;;;;;1.20;1.10;;;;;;;13.92;49.46;101912.44;5052830;28;20191;-49
2022/04/20 09:19:28;;;;;;;2.47;1.20;;;;;;;13.37;49.39;101907.09;5052715;28;20199;-50
2022/04/20 09:21:55;;;;;;;2.08;1.10;;;;;;;13.26;49.96;101910.09;5053266;28;20167;-51
2022/04/20 09:24:21;;;;;;;1.52;1.42;;;;;;;13.13;53.57;101909.59;5053121;28;20168;-50
2022/04/20 09:26:54;;;;;;;2.92;1.33;;;;;;;14.43;51.59;101898.03;5053068;28;20517;-48
2022/04/20 09:29:20;;;;;;;1.52;1.30;;;;;;;12.65;58.18;101915.56;5052723;28;20226;-48
2022/04/20 09:31:53;;;;;;;2.53;1.10;;;;;;;12.93;59.62;101896.78;5051525;28;20171;-48
2022/04/20 09:34:24;;;;;;;2.08;1.40;;;;;;;12.31;61.08;101908.47;5052458;28;20640;-50
2022/04/20 09:36:51;;;;;;;5.05;1.60;;;;;;;12.01;60.67;101901.25;5052428;28;20218;-46
2022/04/20 09:39:17;;;;;;;1.85;1.40;;;;;;;12.05;60.80;101902.94;5052317;28;20681;-49
2022/04/20 09:41:56;;;;;;;1.40;1.30;;;;;;;12.00;60.02;101895.00;5053436;28;20767;-50
2022/04/20 09:44:22;;;;;;;1.90;1.42;;;;;;;12.08;60.69;101914.47;5052096;28;20167;-50
2022/04/20 09:49:58;;;;;;;2.72;1.27;;;;;;;12.30;59.07;101909.38;5052293;28;20167;-49
2022/04/20 09:52:25;;;;;;;3.28;1.38;;;;;;;12.47;59.92;101906.22;5052146;28;20198;-50
2022/04/20 09:54:57;;;;;;;1.90;1.40;;;;;;;12.29;59.23;101907.63;5051574;28;20274;-50
2022/04/20 09:57:23;;;;;;;2.47;1.48;;;;;;;12.40;58.49;101899.28;5052080;28;20630;-50
2022/04/20 09:59:57;;;;;;;2.13;1.52;;;;;;;12.45;59.00;101905.38;5052926;28;20681;-49
2022/04/20 10:02:23;;;;;;;3.22;1.45;;;;;;;12.29;58.58;101890.66;5052191;28;20191;-50
2022/04/20 10:04:48;;;;;;;1.70;1.55;;;;;;;12.11;61.04;101908.13;5051480;28;20555;-50
2022/04/20 10:07:15;;;;;;;1.88;1.70;;;;;;;12.16;60.46;101899.03;5051796;28;20172;-48
2022/04/20 10:09:40;;;;;;;1.75;1.58;;;;;;;12.12;58.42;101886.59;5051903;28;20724;-52
2022/04/20 10:12:11;;;;;;;1.40;1.30;;;;;;;12.13;59.37;101899.13;5051474;28;20183;-50
2022/04/20 10:17:24;;;;;;;2.40;1.60;;;;;;;12.56;57.67;101889.81;5051372;28;20167;-50
2022/04/20 10:19:51;;;;;;;2.13;1.40;;;;;;;12.67;58.29;101894.00;5051306;28;20176;-49
2022/04/20 10:22:18;;;;;;;3.53;1.70;;;;;;;12.76;57.01;101889.22;5050662;28;20528;-50
2022/04/20 10:24:49;;;;;;;1.60;1.50;;;;;;;12.21;56.14;101893.53;5051351;28;20638;-49
2022/04/20 10:27:52;;;;;;;2.35;1.60;;;;;;;12.28;56.52;101896.91;5051320;28;20198;-48
2022/04/20 10:30:27;;;;;;;3.35;1.30;;;;;;;12.03;58.32;101880.63;5050938;28;20171;-48
2022/04/20 10:32:59;;;;;;;3.53;1.45;;;;;;;11.80;61.54;101881.19;5050971;28;20222;-49
2022/04/20 10:35:25;;;;;;;3.42;1.48;;;;;;;12.02;61.16;101878.84;5049926;28;20230;-52
2022/04/20 10:38:12;;;;;;;2.45;1.60;;;;;;;11.66;62.83;101876.19;5049887;28;20248;-48
2022/04/20 10:41:13;;;;;;;2.00;1.77;;;;;;;11.55;64.44;101871.97;5066472;28;20211;-50
2022/04/20 10:43:42;;;;;;;2.65;1.95;;;;;;;11.82;63.63;101874.84;5049748;28;20186;-52
2022/04/20 10:46:19;;;;;;;3.22;1.88;;;;;;;11.88;64.03;101872.03;5051144;28;20171;-50
2022/04/20 10:48:51;;;;;;;2.10;1.90;;;;;;;11.91;62.82;101855.84;5051253;28;20714;-50
2022/04/20 10:51:46;;;;;;;2.03;1.67;;;;;;;11.77;60.75;101863.38;5050727;28;20236;-50
2022/04/20 10:54:17;;;;;;;1.85;1.60;;;;;;;11.75;60.66;101859.84;5050017;28;20214;-50
2022/04/20 10:56:48;;;;;;;2.42;1.40;;;;;;;11.62;59.12;101859.28;5065575;28;20727;-50
2022/04/20 10:59:13;;;;;;;1.60;1.50;;;;;;;11.63;57.76;101855.69;5051025;28;20728;-49
2022/04/20 11:02:12;;;;;;;1.20;1.10;;;;;;;11.93;55.90;101856.66;5049463;28;20199;-48
2022/04/20 11:04:46;;;;;;;1.98;1.30;;;;;;;12.12;55.47;101854.38;5038271;28;20195;-49
2022/04/20 11:07:34;;;;;;;3.80;1.17;;;;;;;12.09;54.69;101864.31;5049425;28;20229;-49
2022/04/20 11:10:03;;;;;;;3.60;1.20;;;;;;;12.18;54.38;101853.31;5050924;28;20791;-49
2022/04/20 11:21:25;;;;;;;1.17;0.65;;;;;;;11.98;54.61;101843.13;5050506;28;20305;-50
2022/04/20 11:24:08;;;;;;;2.15;0.93;;;;;;;12.07;55.42;101859.00;5050333;28;20180;-49
2022/04/20 11:26:41;;;;;;;1.92;1.10;;;;;;;12.11;54.71;101851.72;5050580;28;20159;-50
2022/04/20 11:29:18;;;;;;;3.85;1.50;;;;;;;12.18;56.35;101855.09;5050009;28;20234;-51
2022/04/20 11:32:10;;;;;;;1.85;1.30;;;;;;;12.16;55.42;101848.00;5050274;28;20189;-50
2022/04/20 11:34:46;;;;;;;2.78;1.08;;;;;;;11.88;55.78;101839.81;5048346;28;20179;-50
2022/04/20 11:37:11;;;;;;;1.98;1.10;;;;;;;11.90;55.10;101839.78;5050179;28;20233;-51
2022/04/20 11:39:36;;;;;;;2.47;1.05;;;;;;;12.01;54.89;101851.09;5049699;28;20603;-48
2022/04/20 11:42:06;;;;;;;1.30;1.20;;;;;;;11.94;55.71;101836.97;5050275;28;20263;-49
2022/04/20 11:44:36;;;;;;;2.15;1.23;;;;;;;12.05;56.20;101846.53;5049713;28;20277;-50
2022/04/20 11:47:08;;;;;;;1.60;1.50;;;;;;;12.11;54.97;101843.66;5048798;28;20167;-49
2022/04/20 11:49:46;;;;;;;4.90;1.42;;;;;;;12.11;55.15;101835.59;5049568;28;20190;-52
2022/04/20 11:52:17;;;;;;;4.40;1.50;;;;;;;12.38;54.90;101833.94;5048555;28;20712;-49
2022/04/20 11:54:46;;;;;;;2.88;1.45;;;;;;;12.26;55.48;101835.16;5048184;28;20176;-47
2022/04/20 11:57:22;;;;;;;4.07;1.50;;;;;;;12.16;55.66;101845.31;5047915;28;20555;-49
2022/04/20 11:59:49;;;;;;;4.38;1.40;;;;;;;12.10;55.58;101847.28;5048594;28;20183;-49
2022/04/20 12:02:17;;;;;;;1.50;1.40;;;;;;;12.07;56.13;101842.88;5049768;28;20359;-48
2022/04/20 12:04:44;;;;;;;1.92;1.35;;;;;;;12.08;56.22;101838.38;5049293;28;20213;-48
2022/04/20 12:07:13;;;;;;;4.60;1.90;;;;;;;12.20;55.96;101845.19;5064783;28;20615;-49
2022/04/20 12:09:42;;;;;;;1.55;1.42;;;;;;;12.12;56.21;101843.63;5049718;28;20178;-49
2022/04/20 12:12:12;;;;;;;2.92;1.40;;;;;;;12.00;56.89;101835.03;5049639;28;20182;-48
2022/04/20 12:14:39;;;;;;;2.72;1.33;;;;;;;11.94;58.26;101836.09;5049119;28;20198;-47
2022/04/20 12:17:20;;;;;;;1.45;1.35;;;;;;;11.89;57.80;101836.19;5048447;28;20187;-50
2022/04/20 12:19:47;;;;;;;2.90;2.03;;;;;;;11.84;58.73;101838.09;5048363;28;20179;-48
2022/04/20 12:22:15;;;;;;;1.65;1.55;;;;;;;12.05;57.52;101833.13;5049615;28;20186;-48
2022/04/20 12:24:42;;;;;;;1.88;1.73;;;;;;;12.00;56.50;101824.28;5048154;28;20390;-49
2022/04/20 12:27:22;;;;;;;3.30;1.90;;;;;;;12.29;56.53;101823.47;5049625;28;20175;-49
2022/04/20 12:29:54;;;;;;;4.13;2.10;;;;;;;12.52;55.33;101817.38;5047959;28;20254;-48